createdAt,value
2018-08-24T00:02:14.045Z,56.90
2018-08-24T00:04:42.034Z,56.90
2018-08-24T00:07:10.034Z,56.90
2018-08-24T00:09:37.958Z,56.90
2018-08-24T00:12:06.115Z,57.00
2018-08-24T00:14:34.103Z,57.00
2018-08-24T00:17:02.049Z,57.00
2018-08-24T00:19:30.048Z,57.20
2018-08-24T00:21:58.059Z,57.30
2018-08-24T00:24:26.027Z,57.10
2018-08-24T00:26:54.005Z,57.20
2018-08-24T00:29:21.989Z,57.20
2018-08-24T00:31:50.010Z,57.20
2018-08-24T00:34:18.005Z,57.20
2018-08-24T00:36:45.932Z,57.20
2018-08-24T00:39:17.322Z,57.10
2018-08-24T00:41:45.337Z,57.10
2018-08-24T00:44:13.363Z,57.20
2018-08-24T00:46:41.322Z,57.30
2018-08-24T00:49:09.316Z,57.30
2018-08-24T00:51:37.297Z,57.50
2018-08-24T00:54:05.269Z,57.40
2018-08-24T00:56:33.565Z,57.50
2018-08-24T00:59:01.531Z,57.40
2018-08-24T01:01:29.539Z,57.50
2018-08-24T01:03:57.539Z,57.40
2018-08-24T01:06:25.496Z,58.00
2018-08-24T01:08:53.459Z,58.20
2018-08-24T01:11:25.699Z,58.40
2018-08-24T01:13:53.929Z,58.40
2018-08-24T01:16:27.477Z,58.30
2018-08-24T01:18:55.443Z,58.30
2018-08-24T01:21:23.413Z,58.90
2018-08-24T01:23:51.644Z,58.50
2018-08-24T01:26:24.237Z,58.60
2018-08-24T01:28:52.531Z,58.60
2018-08-24T01:31:20.582Z,59.10
2018-08-24T01:33:48.966Z,59.70
2018-08-24T01:36:16.977Z,59.60
2018-08-24T01:38:44.941Z,59.70
2018-08-24T01:41:12.949Z,59.90
2018-08-24T01:43:40.907Z,59.80
2018-08-24T01:46:11.975Z,60.60
2018-08-24T01:48:40.785Z,59.80
2018-08-24T01:51:08.764Z,59.70
2018-08-24T01:53:36.732Z,59.70
2018-08-24T01:56:04.735Z,59.80
2018-08-24T01:58:32.712Z,59.90
2018-08-24T02:01:00.669Z,59.90
2018-08-24T02:03:28.644Z,59.90
2018-08-24T02:06:02.713Z,60.00
2018-08-24T02:08:30.676Z,60.00
2018-08-24T02:10:58.629Z,60.10
2018-08-24T02:13:32.150Z,60.30
2018-08-24T02:16:00.135Z,60.20
2018-08-24T02:18:33.504Z,60.30
2018-08-24T02:21:07.006Z,60.60
2018-08-24T02:23:35.235Z,60.70
2018-08-24T02:26:03.164Z,61.00
2018-08-24T02:28:31.129Z,61.00
2018-08-24T02:31:01.119Z,61.30
2018-08-24T02:33:33.709Z,61.20
2018-08-24T02:36:01.651Z,61.60
2018-08-24T02:38:29.646Z,61.70
2018-08-24T02:40:57.628Z,62.00
2018-08-24T02:43:25.771Z,61.80
2018-08-24T02:45:53.785Z,61.80
2018-08-24T02:48:21.748Z,61.80
2018-08-24T02:50:49.999Z,61.90
2018-08-24T02:53:17.981Z,61.90
2018-08-24T02:55:45.932Z,62.00
2018-08-24T02:58:13.919Z,62.10
2018-08-24T03:00:41.885Z,62.10
2018-08-24T03:03:09.957Z,62.20
2018-08-24T03:05:38.096Z,62.30
2018-08-24T03:08:05.984Z,62.30
2018-08-24T03:10:33.937Z,62.50
2018-08-24T03:13:01.962Z,62.60
2018-08-24T03:15:29.937Z,62.60
2018-08-24T03:17:57.886Z,62.50
2018-08-24T03:20:26.281Z,62.70
2018-08-24T03:22:54.832Z,62.70
2018-08-24T03:25:22.799Z,62.70
2018-08-24T03:27:50.814Z,62.80
2018-08-24T03:30:18.891Z,62.90
2018-08-24T03:32:46.940Z,62.90
2018-08-24T03:35:14.905Z,63.00
2018-08-24T03:37:42.880Z,63.00
2018-08-24T03:40:10.868Z,63.00
2018-08-24T03:42:38.839Z,63.00
2018-08-24T03:45:06.837Z,63.10
2018-08-24T03:47:34.849Z,63.20
2018-08-24T03:50:02.838Z,63.10
2018-08-24T03:52:30.831Z,63.10
2018-08-24T03:54:58.821Z,63.20
2018-08-24T03:57:33.606Z,63.50
2018-08-24T04:00:01.568Z,63.30
2018-08-24T04:02:29.535Z,63.20
2018-08-24T04:04:57.527Z,63.20
2018-08-24T04:07:25.535Z,63.10
2018-08-24T04:09:53.523Z,63.20
2018-08-24T04:12:24.896Z,63.00
2018-08-24T04:14:52.906Z,63.00
2018-08-24T04:17:26.334Z,62.80
2018-08-24T04:19:54.316Z,62.70
2018-08-24T04:22:22.277Z,62.50
2018-08-24T04:24:50.264Z,62.30
2018-08-24T04:27:18.228Z,62.30
2018-08-24T04:29:46.204Z,62.20
2018-08-24T04:32:14.191Z,62.50
2018-08-24T04:34:43.248Z,62.50
2018-08-24T04:37:11.218Z,62.50
2018-08-24T04:39:39.192Z,62.40
2018-08-24T04:42:07.181Z,62.40
2018-08-24T04:44:35.165Z,62.50
2018-08-24T04:47:03.839Z,62.30
2018-08-24T04:49:31.826Z,62.30
2018-08-24T04:51:59.821Z,62.50
2018-08-24T04:54:27.813Z,62.70
2018-08-24T04:56:55.809Z,62.90
2018-08-24T04:59:23.917Z,63.10
2018-08-24T05:01:51.744Z,63.00
2018-08-24T05:04:19.792Z,63.10
2018-08-24T05:06:47.797Z,63.10
2018-08-24T05:09:15.772Z,63.10
2018-08-24T05:11:43.760Z,63.20
2018-08-24T05:14:11.773Z,63.40
2018-08-24T05:16:39.755Z,63.60
2018-08-24T05:19:07.726Z,63.80
2018-08-24T05:21:35.701Z,64.10
2018-08-24T05:24:03.772Z,64.20
2018-08-24T05:26:31.766Z,64.30
2018-08-24T05:28:59.762Z,64.20
2018-08-24T05:31:27.727Z,64.20
2018-08-24T05:33:55.686Z,64.20
2018-08-24T05:36:23.715Z,64.40
2018-08-24T05:38:51.678Z,64.60
2018-08-24T05:41:19.687Z,64.70
2018-08-24T05:43:51.379Z,64.90
2018-08-24T05:46:19.370Z,65.10
2018-08-24T05:48:47.486Z,65.40
2018-08-24T05:51:15.469Z,65.50
2018-08-24T05:53:43.440Z,65.60
2018-08-24T05:56:11.424Z,65.60
2018-08-24T05:58:39.435Z,65.60
2018-08-24T06:01:07.463Z,65.50
2018-08-24T06:03:35.428Z,65.50
2018-08-24T06:06:04.222Z,65.50
2018-08-24T06:08:32.789Z,65.90
2018-08-24T06:11:01.891Z,66.30
2018-08-24T06:13:29.920Z,65.70
2018-08-24T06:15:57.967Z,65.70
2018-08-24T06:18:26.024Z,65.70
2018-08-24T06:20:54.010Z,65.90
2018-08-24T06:23:22.000Z,66.20
2018-08-24T06:25:50.018Z,66.30
2018-08-24T06:28:18.014Z,66.50
2018-08-24T06:30:46.035Z,66.20
2018-08-24T06:33:14.021Z,66.20
2018-08-24T06:35:41.977Z,66.00
2018-08-24T06:38:09.964Z,65.60
2018-08-24T06:40:37.954Z,65.60
2018-08-24T06:43:05.963Z,65.50
2018-08-24T06:45:34.108Z,65.60
2018-08-24T06:48:02.152Z,65.50
2018-08-24T06:50:30.127Z,65.40
2018-08-24T06:52:58.809Z,65.20
2018-08-24T06:55:26.905Z,64.60
2018-08-24T06:57:55.098Z,64.80
2018-08-24T07:00:28.755Z,64.10
2018-08-24T07:02:56.869Z,64.10
2018-08-24T07:05:25.077Z,63.70
2018-08-24T07:07:53.300Z,63.40
2018-08-24T07:10:21.415Z,63.50
2018-08-24T07:12:49.452Z,64.20
2018-08-24T07:15:17.421Z,63.50
2018-08-24T07:17:50.966Z,63.50
2018-08-24T07:20:18.959Z,63.30
2018-08-24T07:22:47.024Z,63.00
2018-08-24T07:25:15.060Z,62.80
2018-08-24T07:27:42.991Z,62.60
2018-08-24T07:30:10.964Z,62.40
2018-08-24T07:32:39.108Z,63.00
2018-08-24T07:35:07.120Z,62.70
2018-08-24T07:37:35.084Z,62.90
2018-08-24T07:40:13.969Z,63.00
2018-08-24T07:42:41.947Z,63.80
2018-08-24T07:45:09.942Z,62.80
2018-08-24T07:47:38.019Z,63.00
2018-08-24T07:50:06.049Z,63.10
2018-08-24T07:52:34.020Z,62.90
2018-08-24T07:55:02.018Z,62.80
2018-08-24T07:57:30.021Z,62.80
2018-08-24T07:59:58.003Z,63.00
2018-08-24T08:02:31.427Z,63.30
2018-08-24T08:04:59.424Z,62.80
2018-08-24T08:07:27.414Z,62.80
2018-08-24T08:09:55.419Z,62.70
2018-08-24T08:12:23.430Z,62.50
2018-08-24T08:14:57.348Z,62.50
2018-08-24T08:17:25.339Z,63.10
2018-08-24T08:19:53.318Z,61.90
2018-08-24T08:22:21.316Z,61.80
2018-08-24T08:24:49.487Z,61.90
2018-08-24T08:27:17.387Z,62.00
2018-08-24T08:29:50.969Z,62.30
2018-08-24T08:32:18.960Z,63.10
2018-08-24T08:34:53.097Z,63.60
2018-08-24T08:37:22.222Z,63.60
2018-08-24T08:39:53.059Z,63.90
2018-08-24T08:42:21.907Z,63.80
2018-08-24T08:44:56.650Z,63.50
2018-08-24T08:47:24.637Z,62.70
2018-08-24T08:49:52.636Z,62.20
2018-08-24T08:52:20.653Z,62.20
2018-08-24T08:54:48.740Z,62.30
2018-08-24T08:57:16.736Z,62.50
2018-08-24T08:59:44.886Z,63.20
2018-08-24T09:02:16.316Z,61.90
2018-08-24T09:04:44.304Z,61.80
2018-08-24T09:07:12.337Z,61.80
2018-08-24T09:09:40.335Z,61.60
2018-08-24T09:12:09.738Z,61.30
2018-08-24T09:14:37.779Z,61.10
2018-08-24T09:17:11.101Z,60.90
2018-08-24T09:20:46.458Z,60.40
2018-08-24T09:23:19.877Z,59.10
2018-08-24T09:25:53.524Z,58.30
2018-08-24T09:28:27.064Z,58.30
2018-08-24T09:30:58.925Z,58.30
2018-08-24T09:33:26.901Z,58.10
2018-08-24T09:35:54.896Z,57.50
2018-08-24T09:38:22.923Z,57.40
2018-08-24T09:40:56.463Z,57.50
2018-08-24T09:43:29.900Z,56.50
2018-08-24T09:45:57.876Z,56.30
2018-08-24T09:48:26.751Z,56.50
2018-08-24T09:51:00.374Z,56.50
2018-08-24T09:53:33.780Z,55.70
2018-08-24T09:56:01.759Z,55.70
2018-08-24T09:58:30.112Z,55.90
2018-08-24T10:01:03.984Z,55.90
2018-08-24T10:03:37.597Z,56.10
2018-08-24T10:06:11.389Z,56.10
2018-08-24T10:08:44.908Z,55.60
2018-08-24T10:11:13.337Z,55.80
2018-08-24T10:13:41.321Z,56.10
2018-08-24T10:16:09.275Z,56.10
2018-08-24T10:18:37.244Z,56.30
2018-08-24T10:21:05.503Z,56.30
2018-08-24T10:23:33.510Z,56.40
2018-08-24T10:26:01.846Z,56.40
2018-08-24T10:28:30.040Z,56.40
2018-08-24T10:30:58.048Z,56.30
2018-08-24T10:33:25.994Z,56.20
2018-08-24T10:35:54.360Z,56.20
2018-08-24T10:38:22.447Z,56.40
2018-08-24T10:40:50.507Z,56.50
2018-08-24T10:43:18.508Z,56.30
2018-08-24T10:45:46.484Z,56.30
2018-08-24T10:48:14.546Z,55.10
2018-08-24T10:50:42.537Z,54.70
2018-08-24T10:53:10.511Z,53.90
2018-08-24T10:55:38.492Z,53.30
2018-08-24T10:58:06.449Z,53.10
2018-08-24T11:00:34.445Z,53.00
2018-08-24T11:03:02.422Z,52.80
2018-08-24T11:05:30.498Z,53.00
2018-08-24T11:07:58.378Z,53.20
2018-08-24T11:10:26.349Z,53.40
2018-08-24T11:12:54.724Z,53.30
2018-08-24T11:15:22.731Z,53.30
2018-08-24T11:17:56.498Z,53.20
2018-08-24T11:20:24.470Z,53.10
2018-08-24T11:22:52.486Z,52.50
2018-08-24T11:25:20.473Z,52.30
2018-08-24T11:27:48.427Z,52.80
2018-08-24T11:30:16.510Z,51.30
2018-08-24T11:32:44.479Z,50.70
2018-08-24T11:35:12.469Z,50.20
2018-08-24T11:37:40.520Z,49.80
2018-08-24T11:40:08.563Z,48.70
2018-08-24T11:42:36.542Z,47.90
2018-08-24T11:45:04.621Z,48.10
2018-08-24T11:47:32.621Z,48.10
2018-08-24T11:50:00.610Z,48.60
2018-08-24T11:52:28.575Z,48.60
2018-08-24T11:54:56.552Z,50.60
2018-08-24T11:57:24.523Z,51.60
2018-08-24T11:59:52.562Z,51.90
2018-08-24T12:02:20.771Z,50.60
2018-08-24T12:04:48.725Z,50.90
2018-08-24T12:07:16.764Z,50.10
2018-08-24T12:09:44.733Z,49.90
2018-08-24T12:12:12.820Z,49.20
2018-08-24T12:14:40.710Z,49.20
2018-08-24T12:17:10.470Z,49.00
2018-08-24T12:19:38.463Z,49.00
2018-08-24T12:22:06.450Z,49.50
2018-08-24T12:24:34.440Z,49.40
2018-08-24T12:27:02.465Z,49.60
2018-08-24T12:29:30.402Z,49.80
2018-08-24T12:31:58.353Z,49.80
2018-08-24T12:34:26.349Z,49.20
2018-08-24T12:36:54.337Z,48.90
2018-08-24T12:39:22.451Z,48.00
2018-08-24T12:41:50.403Z,46.80
2018-08-24T12:44:18.385Z,47.30
2018-08-24T12:46:46.364Z,46.70
2018-08-24T12:49:14.403Z,46.60
2018-08-24T12:51:42.378Z,46.30
2018-08-24T12:54:10.363Z,46.20
2018-08-24T12:56:38.454Z,46.30
2018-08-24T12:59:06.410Z,46.20
2018-08-24T13:01:34.412Z,46.20
2018-08-24T13:04:02.801Z,46.20
2018-08-24T13:06:30.768Z,46.40
2018-08-24T13:08:58.764Z,45.90
2018-08-24T13:11:26.756Z,45.10
2018-08-24T13:13:54.743Z,44.90
2018-08-24T13:16:22.715Z,44.80
2018-08-24T13:18:50.675Z,45.10
2018-08-24T13:21:22.276Z,45.60
2018-08-24T13:23:50.255Z,45.70
2018-08-24T13:26:18.203Z,45.70
2018-08-24T13:28:46.168Z,45.40
2018-08-24T13:31:14.145Z,46.00
2018-08-24T13:33:42.168Z,46.40
2018-08-24T13:36:10.132Z,46.60
2018-08-24T13:38:38.131Z,46.90
2018-08-24T13:41:06.095Z,47.20
2018-08-24T13:43:34.075Z,47.10
2018-08-24T13:46:02.365Z,47.60
2018-08-24T13:48:30.318Z,48.50
2018-08-24T13:50:58.335Z,47.90
2018-08-24T13:53:26.338Z,48.70
2018-08-24T13:55:54.321Z,48.30
2018-08-24T13:58:22.290Z,48.40
2018-08-24T14:00:50.260Z,48.10
2018-08-24T14:03:18.227Z,48.00
2018-08-24T14:05:46.207Z,48.50
2018-08-24T14:08:14.191Z,48.00
2018-08-24T14:10:42.163Z,47.80
2018-08-24T14:13:10.592Z,48.00
2018-08-24T14:15:38.483Z,47.80
2018-08-24T14:18:06.436Z,48.20
2018-08-24T14:20:34.452Z,47.70
2018-08-24T14:23:02.419Z,47.60
2018-08-24T14:25:30.467Z,47.60
2018-08-24T14:27:58.664Z,47.60
2018-08-24T14:30:26.710Z,47.50
2018-08-24T14:32:54.683Z,47.40
2018-08-24T14:35:22.657Z,46.40
2018-08-24T14:37:50.644Z,45.90
2018-08-24T14:40:18.616Z,45.60
2018-08-24T14:42:46.572Z,45.20
2018-08-24T14:45:14.543Z,45.10
2018-08-24T14:47:42.536Z,45.00
2018-08-24T14:50:10.515Z,44.50
2018-08-24T14:52:38.507Z,43.80
2018-08-24T14:55:06.467Z,43.50
2018-08-24T14:57:34.439Z,42.90
2018-08-24T15:00:02.450Z,41.80
2018-08-24T15:02:30.404Z,41.90
2018-08-24T15:04:58.385Z,42.20
2018-08-24T15:07:26.339Z,42.20
2018-08-24T15:09:54.659Z,42.80
2018-08-24T15:12:22.620Z,42.20
2018-08-24T15:14:50.601Z,42.00
2018-08-24T15:17:18.808Z,42.00
2018-08-24T15:19:47.040Z,41.70
2018-08-24T15:22:14.998Z,41.80
2018-08-24T15:24:42.968Z,42.10
2018-08-24T15:27:10.948Z,42.40
2018-08-24T15:29:38.997Z,42.20
2018-08-24T15:32:06.938Z,42.40
2018-08-24T15:34:34.914Z,42.70
2018-08-24T15:37:02.874Z,43.00
2018-08-24T15:39:30.864Z,43.30
2018-08-24T15:41:58.858Z,43.20
2018-08-24T15:44:27.150Z,43.50
2018-08-24T15:46:55.114Z,43.60
2018-08-24T15:49:23.115Z,43.50
2018-08-24T15:51:51.092Z,43.90
2018-08-24T15:54:19.077Z,44.10
2018-08-24T15:56:47.109Z,44.20
2018-08-24T15:59:15.058Z,44.40
2018-08-24T16:01:43.072Z,44.30
2018-08-24T16:04:11.072Z,44.40
2018-08-24T16:06:39.015Z,44.60
2018-08-24T16:09:12.079Z,44.60
2018-08-24T16:11:40.230Z,44.60
2018-08-24T16:14:08.525Z,44.60
2018-08-24T16:16:36.585Z,44.60
2018-08-24T16:19:04.478Z,44.60
2018-08-24T16:21:32.449Z,45.00
2018-08-24T16:24:00.563Z,45.20
2018-08-24T16:26:28.525Z,45.30
2018-08-24T16:28:56.479Z,45.20
2018-08-24T16:31:24.468Z,45.00
2018-08-24T16:33:52.993Z,45.10
2018-08-24T16:36:20.960Z,45.20
2018-08-24T16:38:48.994Z,45.30
2018-08-24T16:41:16.980Z,45.10
2018-08-24T16:43:44.932Z,45.30
2018-08-24T16:46:12.913Z,45.30
2018-08-24T16:48:40.879Z,45.60
2018-08-24T16:51:09.046Z,45.60
2018-08-24T16:53:37.019Z,45.60
2018-08-24T16:56:05.001Z,45.50
2018-08-24T16:58:32.991Z,45.40
2018-08-24T17:01:01.000Z,45.40
2018-08-24T17:03:29.145Z,45.40
2018-08-24T17:05:57.349Z,45.20
2018-08-24T17:08:25.510Z,45.00
2018-08-24T17:10:53.596Z,45.00
2018-08-24T17:13:21.589Z,44.70
2018-08-24T17:15:49.568Z,44.60
2018-08-24T17:18:17.523Z,43.40
2018-08-24T17:20:45.499Z,42.10
2018-08-24T17:23:13.486Z,42.30
2018-08-24T17:25:41.543Z,42.60
2018-08-24T17:28:09.654Z,42.30
2018-08-24T17:30:37.618Z,42.60
2018-08-24T17:33:05.926Z,42.50
2018-08-24T17:35:33.957Z,42.60
2018-08-24T17:38:02.062Z,42.30
2018-08-24T17:40:30.036Z,42.20
2018-08-24T17:42:57.998Z,42.10
2018-08-24T17:45:25.948Z,40.90
2018-08-24T17:47:53.928Z,40.90
2018-08-24T17:50:21.869Z,40.90
2018-08-24T17:52:50.324Z,40.80
2018-08-24T17:55:18.280Z,40.70
2018-08-24T17:57:46.255Z,40.60
2018-08-24T18:00:14.204Z,40.90
2018-08-24T18:02:42.147Z,41.00
2018-08-24T18:05:10.454Z,41.00
2018-08-24T18:07:38.439Z,41.20
2018-08-24T18:10:06.382Z,42.20
2018-08-24T18:12:34.648Z,41.80
2018-08-24T18:15:02.845Z,41.90
2018-08-24T18:17:30.601Z,41.90
2018-08-24T18:19:58.588Z,42.20
2018-08-24T18:22:26.575Z,42.50
2018-08-24T18:24:54.553Z,43.10
2018-08-24T18:27:22.529Z,43.50
2018-08-24T18:29:51.052Z,43.80
2018-08-24T18:32:19.004Z,44.00
2018-08-24T18:34:46.987Z,44.00
2018-08-24T18:37:14.996Z,44.20
2018-08-24T18:39:42.939Z,44.20
2018-08-24T18:42:10.943Z,44.50
2018-08-24T18:44:38.918Z,44.60
2018-08-24T18:47:06.884Z,44.80
2018-08-24T18:49:34.806Z,44.80
2018-08-24T18:52:02.796Z,44.90
2018-08-24T18:54:30.760Z,44.90
2018-08-24T18:59:32.245Z,44.80
2018-08-24T19:02:00.261Z,44.80
2018-08-24T19:04:28.249Z,44.70
2018-08-24T19:06:56.240Z,45.00
2018-08-24T19:09:24.198Z,44.90
2018-08-24T19:11:57.505Z,45.10
2018-08-24T19:14:25.469Z,45.10
2018-08-24T19:16:53.418Z,45.10
2018-08-24T19:19:26.938Z,45.30
2018-08-24T19:21:59.007Z,45.30
2018-08-24T19:24:26.985Z,45.50
2018-08-24T19:26:54.952Z,45.50
2018-08-24T19:29:28.319Z,45.60
2018-08-24T19:31:56.368Z,45.60
2018-08-24T19:34:24.262Z,45.50
2018-08-24T19:36:52.240Z,45.60
2018-08-24T19:39:20.205Z,45.50
2018-08-24T19:41:53.650Z,45.50
2018-08-24T19:44:21.605Z,45.40
2018-08-24T19:46:49.539Z,45.50
2018-08-24T19:49:19.615Z,45.50
2018-08-24T19:51:47.545Z,45.60
2018-08-24T19:54:16.164Z,45.90
2018-08-24T19:56:44.130Z,46.10
2018-08-24T19:59:13.608Z,46.30
2018-08-24T20:01:42.464Z,46.40
2018-08-24T20:04:11.546Z,46.70
2018-08-24T20:06:45.110Z,46.70
2018-08-24T20:09:18.638Z,46.80
2018-08-24T20:11:48.039Z,46.90
2018-08-24T20:14:16.681Z,47.00
2018-08-24T20:16:50.053Z,47.00
2018-08-24T20:19:18.051Z,47.20
2018-08-24T20:21:46.005Z,47.20
2018-08-24T20:24:14.029Z,47.20
2018-08-24T20:26:42.264Z,47.60
2018-08-24T20:29:10.218Z,47.70
2018-08-24T20:31:38.168Z,47.60
2018-08-24T20:34:06.160Z,47.70
2018-08-24T20:36:34.182Z,47.50
2018-08-24T20:39:02.102Z,47.60
2018-08-24T20:41:30.069Z,47.60
2018-08-24T20:43:58.026Z,47.50
2018-08-24T20:46:25.975Z,47.70
2018-08-24T20:48:54.068Z,47.70
2018-08-24T20:51:22.016Z,47.70
2018-08-24T20:53:49.981Z,47.80
2018-08-24T20:56:17.969Z,48.00
2018-08-24T20:58:45.922Z,48.00
2018-08-24T21:01:13.874Z,48.50
2018-08-24T21:03:41.840Z,48.00
2018-08-24T21:06:09.842Z,48.20
2018-08-24T21:08:37.784Z,48.50
2018-08-24T21:11:05.797Z,48.80
2018-08-24T21:13:34.139Z,48.90
2018-08-24T21:16:02.191Z,49.00
2018-08-24T21:18:30.192Z,49.60
2018-08-24T21:20:58.181Z,49.00
2018-08-24T21:23:26.178Z,49.20
2018-08-24T21:25:54.116Z,49.40
2018-08-24T21:28:22.062Z,49.40
2018-08-24T21:30:50.045Z,49.40
2018-08-24T21:33:18.014Z,49.50
2018-08-24T21:35:46.111Z,49.70
2018-08-24T21:38:14.127Z,49.70
2018-08-24T21:40:42.139Z,49.60
2018-08-24T21:43:10.115Z,49.40
2018-08-24T21:45:38.196Z,49.30
2018-08-24T21:48:06.166Z,49.50
2018-08-24T21:50:34.127Z,49.50
2018-08-24T21:53:02.244Z,49.70
2018-08-24T21:55:30.192Z,49.50
2018-08-24T21:57:58.220Z,49.30
2018-08-24T22:00:26.115Z,49.50
2018-08-24T22:02:54.071Z,49.30
2018-08-24T22:05:22.040Z,49.30
2018-08-24T22:07:50.007Z,49.30
2018-08-24T22:10:17.984Z,49.20
2018-08-24T22:12:46.150Z,48.90
2018-08-24T22:15:14.263Z,48.50
2018-08-24T22:17:42.649Z,48.40
2018-08-24T22:20:10.746Z,47.10
2018-08-24T22:22:38.705Z,46.60
2018-08-24T22:25:06.700Z,46.10
2018-08-24T22:27:34.702Z,46.00
2018-08-24T22:30:02.729Z,45.80
2018-08-24T22:32:30.633Z,45.90
2018-08-24T22:34:58.608Z,45.50
2018-08-24T22:37:26.600Z,44.90
2018-08-24T22:39:54.562Z,44.60
2018-08-24T22:42:22.513Z,44.30
2018-08-24T22:44:50.491Z,43.70
2018-08-24T22:47:18.463Z,44.00
2018-08-24T22:49:46.448Z,44.00
2018-08-24T22:52:14.401Z,44.20
2018-08-24T22:54:42.354Z,44.30
2018-08-24T22:57:10.319Z,44.50
2018-08-24T22:59:38.301Z,44.20
2018-08-24T23:02:06.297Z,44.40
2018-08-24T23:04:34.322Z,44.60
2018-08-24T23:07:02.409Z,44.40
2018-08-24T23:09:30.348Z,44.40
2018-08-24T23:11:58.318Z,44.40
2018-08-24T23:14:26.286Z,44.30
2018-08-24T23:16:54.230Z,44.10
2018-08-24T23:19:22.404Z,43.90
2018-08-24T23:21:50.304Z,44.20
2018-08-24T23:24:18.268Z,44.70
2018-08-24T23:26:46.242Z,44.70
2018-08-24T23:29:14.199Z,44.20
2018-08-24T23:31:42.174Z,43.80
2018-08-24T23:34:10.458Z,43.60
2018-08-24T23:36:38.368Z,43.50
2018-08-24T23:39:08.098Z,43.50
2018-08-24T23:41:36.063Z,43.60
2018-08-24T23:44:04.024Z,43.70
2018-08-24T23:46:32.058Z,43.90
2018-08-24T23:49:00.284Z,43.80
2018-08-24T23:51:28.295Z,44.00
2018-08-24T23:53:56.287Z,44.60
2018-08-24T23:56:24.237Z,44.00
2018-08-24T23:58:52.243Z,44.20
